Time;durP1;ratioP1;P1;durP2;ratioP2;P2;SDS_P1;SDS_P2;PMS_P1;PMS_P2;Temp;Humidity;BMP_temperature;BMP_pressure;BME280_temperature;BME280_humidity;BME280_pressure;Samples;Min_cycle;Max_cycle;Signal;HPM_P1;HPM_P2
2022/07/17 00:01:33;;;;;;;10.60;2.65;;;;;;;15.49;52.83;100987.44;5058627;27;97244;-74
2022/07/17 00:03:58;;;;;;;7.40;2.85;;;;;;;15.50;52.94;100987.34;5040973;27;97218;-74
2022/07/17 00:06:24;;;;;;;8.60;2.70;;;;;;;15.50;52.52;100983.84;5040479;27;101768;-74
2022/07/17 00:08:49;;;;;;;5.10;2.72;;;;;;;15.49;52.21;100987.44;5039366;27;101293;-75
2022/07/17 00:11:15;;;;;;;5.60;2.15;;;;;;;15.46;52.83;100988.44;5036890;27;97528;-73
2022/07/17 00:13:40;;;;;;;4.60;2.40;;;;;;;15.20;52.34;100951.69;5048306;27;97252;-73
2022/07/17 00:16:06;;;;;;;5.72;2.67;;;;;;;15.25;51.94;100969.06;5039392;27;97470;-73
2022/07/17 00:18:32;;;;;;;6.03;2.28;;;;;;;15.28;52.32;100989.25;5075986;27;97364;-74
2022/07/17 00:20:57;;;;;;;9.95;2.17;;;;;;;15.46;51.93;100996.38;5056574;27;97136;-74
2022/07/17 00:23:23;;;;;;;8.38;2.20;;;;;;;15.33;51.79;100990.75;5037058;27;96780;-74
2022/07/17 00:25:48;;;;;;;6.22;2.65;;;;;;;15.36;52.56;100998.56;5048516;27;98462;-75
2022/07/17 00:28:14;;;;;;;8.60;2.33;;;;;;;15.24;52.34;100985.00;5057015;27;97645;-74
2022/07/17 00:30:39;;;;;;;4.55;2.00;;;;;;;15.32;51.87;101012.81;5076502;27;96729;-74
2022/07/17 00:33:05;;;;;;;6.13;2.17;;;;;;;15.27;53.27;101003.38;5075797;27;97371;-74
2022/07/17 00:35:30;;;;;;;6.70;2.42;;;;;;;15.22;52.75;100997.44;5057779;27;97494;-74
2022/07/17 00:37:56;;;;;;;6.63;2.58;;;;;;;15.20;52.71;101002.78;5035691;27;101982;-75
2022/07/17 00:40:23;;;;;;;7.90;2.80;;;;;;;15.15;52.55;101004.75;5021026;27;96894;-74
2022/07/17 00:42:49;;;;;;;7.28;2.22;;;;;;;15.14;52.67;101008.31;5024575;27;96880;-77
2022/07/17 00:45:15;;;;;;;7.38;2.38;;;;;;;15.08;53.16;100990.94;5034732;27;97486;-73
2022/07/17 00:47:52;;;;;;;7.45;2.40;;;;;;;15.14;53.34;101003.03;5057699;27;97482;-73
2022/07/17 00:50:17;;;;;;;3.97;2.03;;;;;;;15.07;52.86;100988.38;5076269;27;97217;-73
2022/07/17 00:52:44;;;;;;;5.50;1.80;;;;;;;15.05;53.60;101000.78;5040680;27;97340;-75
2022/07/17 00:55:11;;;;;;;5.10;2.30;;;;;;;15.11;52.88;101013.75;5078355;27;97471;-72
2022/07/17 00:57:40;;;;;;;3.38;1.83;;;;;;;15.06;52.90;101011.28;5039690;27;98119;-72
2022/07/17 01:00:09;;;;;;;5.97;2.08;;;;;;;15.05;52.87;101012.22;5026693;27;96816;-72
2022/07/17 01:02:35;;;;;;;4.97;2.22;;;;;;;15.00;53.61;101013.34;5060816;27;96806;-73
2022/07/17 01:05:00;;;;;;;7.53;2.58;;;;;;;14.96;53.04;101011.75;5077296;27;101251;-72
2022/07/17 01:07:26;;;;;;;6.88;2.58;;;;;;;15.14;52.52;101019.75;5040542;27;100479;-72
2022/07/17 01:09:51;;;;;;;3.53;1.80;;;;;;;15.00;52.28;101022.13;5026069;27;96634;-72
2022/07/17 01:12:17;;;;;;;8.38;2.30;;;;;;;14.88;53.81;101028.75;5043161;27;96857;-73
2022/07/17 01:14:43;;;;;;;5.15;2.40;;;;;;;14.86;52.66;101022.66;5018849;27;100997;-73
2022/07/17 01:17:10;;;;;;;4.03;1.83;;;;;;;14.80;52.61;101028.22;5032391;27;100745;-72
2022/07/17 01:19:35;;;;;;;6.20;1.75;;;;;;;14.85;52.55;101022.75;5042120;27;96918;-73
2022/07/17 01:22:01;;;;;;;6.10;2.25;;;;;;;14.78;52.63;101024.78;5022138;27;97214;-72
2022/07/17 01:24:26;;;;;;;3.80;1.70;;;;;;;14.77;52.87;101036.25;5061593;27;101532;-72
2022/07/17 01:26:51;;;;;;;9.35;2.10;;;;;;;14.78;53.62;101024.78;5078302;27;97322;-73
2022/07/17 01:29:17;;;;;;;3.17;1.85;;;;;;;14.71;53.16;101031.22;5043467;27;97128;-73
2022/07/17 01:31:43;;;;;;;8.20;2.22;;;;;;;14.71;53.15;101023.31;5060563;27;97266;-72
2022/07/17 01:34:10;;;;;;;8.45;2.75;;;;;;;14.80;53.14;101032.63;5059928;27;97416;-72
2022/07/17 01:36:36;;;;;;;9.48;2.92;;;;;;;14.70;53.68;101029.53;5060167;27;97322;-74
2022/07/17 01:39:03;;;;;;;5.18;2.70;;;;;;;14.77;52.88;101025.69;5029234;27;96734;-73
2022/07/17 01:41:28;;;;;;;9.00;2.80;;;;;;;14.75;52.86;101030.19;5041702;27;98264;-72
2022/07/17 01:43:54;;;;;;;7.03;2.35;;;;;;;14.67;52.64;101029.63;5038997;27;100509;-73
2022/07/17 01:46:19;;;;;;;6.45;2.90;;;;;;;14.64;53.47;101027.97;5043234;27;97664;-75
2022/07/17 01:48:45;;;;;;;8.68;3.25;;;;;;;14.53;53.82;101031.97;5051716;27;97117;-77
2022/07/17 01:51:10;;;;;;;9.15;3.45;;;;;;;14.53;53.70;101038.09;5054707;27;97325;-72
2022/07/17 01:53:36;;;;;;;7.47;2.65;;;;;;;14.44;54.11;101043.72;5059554;27;99236;-73
2022/07/17 01:56:01;;;;;;;5.05;2.33;;;;;;;14.31;54.44;101030.13;5064987;27;97270;-72
2022/07/17 01:58:27;;;;;;;4.47;2.10;;;;;;;14.36;54.28;101037.88;5061402;27;97309;-73
2022/07/17 02:00:53;;;;;;;4.55;2.00;;;;;;;14.34;54.36;101035.28;5039276;27;96922;-76
2022/07/17 02:03:19;;;;;;;4.97;1.90;;;;;;;14.30;54.78;101030.19;5021349;27;101542;-75
2022/07/17 02:05:45;;;;;;;3.97;1.95;;;;;;;14.19;54.69;101028.78;5039076;27;101415;-75
2022/07/17 02:08:10;;;;;;;9.02;2.50;;;;;;;14.21;55.33;101039.31;5041867;27;96641;-75
2022/07/17 02:10:36;;;;;;;5.57;2.03;;;;;;;14.15;55.48;101043.03;5036041;27;96849;-75
2022/07/17 02:13:01;;;;;;;4.30;1.88;;;;;;;14.10;55.01;101037.06;5072448;27;98273;-74
2022/07/17 02:15:27;;;;;;;4.97;1.73;;;;;;;14.04;54.99;101018.81;5075130;27;100143;-74
2022/07/17 02:17:52;;;;;;;4.20;1.90;;;;;;;14.14;55.35;101041.31;5078517;27;96693;-81
2022/07/17 02:20:19;;;;;;;4.25;1.80;;;;;;;14.08;55.77;101051.22;5060095;27;96931;-78
2022/07/17 02:22:45;;;;;;;6.45;2.00;;;;;;;14.02;55.62;101041.75;5068845;27;98211;-75
2022/07/17 02:25:10;;;;;;;5.28;1.80;;;;;;;14.03;56.02;101041.72;5015108;27;101360;-74
2022/07/17 02:27:36;;;;;;;6.38;1.88;;;;;;;14.02;56.06;101050.56;5042432;27;96841;-74
2022/07/17 02:30:08;;;;;;;6.57;1.85;;;;;;;14.09;55.64;101058.25;5039503;27;96806;-74
2022/07/17 02:32:33;;;;;;;4.07;1.92;;;;;;;14.08;55.51;101045.94;5039385;27;97351;-72
2022/07/17 02:34:59;;;;;;;3.65;2.03;;;;;;;13.98;55.40;101043.66;5055852;27;97621;-73
2022/07/17 02:37:24;;;;;;;6.20;2.17;;;;;;;13.99;56.30;101052.44;5042801;27;96975;-75
2022/07/17 02:39:52;;;;;;;3.45;1.38;;;;;;;13.95;56.22;101049.06;5039254;27;96760;-74
2022/07/17 02:42:22;;;;;;;4.80;2.00;;;;;;;13.93;55.35;101056.19;5041467;27;98179;-74
2022/07/17 02:44:48;;;;;;;4.68;1.60;;;;;;;13.99;55.60;101055.97;5059072;27;99249;-73
2022/07/17 02:47:27;;;;;;;4.68;2.15;;;;;;;13.92;55.87;101035.13;5058997;27;98128;-74
2022/07/17 02:49:53;;;;;;;3.95;1.92;;;;;;;14.03;55.63;101054.91;5025569;27;97224;-81
2022/07/17 02:52:19;;;;;;;7.38;1.63;;;;;;;14.04;56.12;101056.63;5018302;27;101031;-74
2022/07/17 02:54:45;;;;;;;4.00;1.60;;;;;;;13.96;56.13;101057.81;5042123;27;101656;-72
2022/07/17 02:57:11;;;;;;;4.88;1.83;;;;;;;13.87;55.87;101044.97;5059401;27;96700;-72
2022/07/17 02:59:37;;;;;;;4.53;1.80;;;;;;;13.79;56.23;101027.66;5042351;27;96858;-72
2022/07/17 03:02:02;;;;;;;5.40;1.75;;;;;;;13.89;55.66;101045.78;5049538;27;97838;-72
2022/07/17 03:04:28;;;;;;;6.65;1.98;;;;;;;13.76;56.45;101050.66;5022911;27;97462;-72
2022/07/17 03:06:53;;;;;;;3.92;1.60;;;;;;;13.71;56.54;101049.94;5051970;27;97553;-81
2022/07/17 03:09:19;;;;;;;6.72;2.17;;;;;;;13.70;56.76;101048.19;5051955;27;96922;-74
2022/07/17 03:11:44;;;;;;;6.00;1.65;;;;;;;13.72;56.69;101052.50;5044058;27;97687;-74
2022/07/17 03:14:10;;;;;;;5.88;1.73;;;;;;;13.77;56.32;101055.84;5058173;27;97289;-74
2022/07/17 03:16:35;;;;;;;4.07;1.70;;;;;;;13.89;56.20;101054.56;5044209;27;96728;-74
2022/07/17 03:19:00;;;;;;;4.90;1.70;;;;;;;13.84;56.39;101050.34;5041547;27;97180;-74
2022/07/17 03:21:26;;;;;;;4.45;2.08;;;;;;;13.69;56.77;101036.78;5057713;27;98093;-75
2022/07/17 03:23:51;;;;;;;5.80;1.67;;;;;;;13.72;55.80;101033.19;5053910;27;101313;-74
2022/07/17 03:26:17;;;;;;;6.60;2.22;;;;;;;13.84;56.35;101056.50;5036277;27;96723;-75
2022/07/17 03:28:42;;;;;;;4.88;1.42;;;;;;;13.81;56.51;101053.97;5038331;27;97000;-75
2022/07/17 03:31:08;;;;;;;3.20;1.75;;;;;;;13.84;55.79;101045.94;5040698;27;101032;-75
2022/07/17 03:33:33;;;;;;;6.75;1.90;;;;;;;13.82;56.54;101060.97;5021169;27;101251;-74
2022/07/17 03:35:59;;;;;;;7.82;2.63;;;;;;;13.84;56.12;101066.19;5069524;27;96866;-74
2022/07/17 03:38:24;;;;;;;4.13;1.98;;;;;;;13.81;57.08;101070.66;5028462;27;96849;-75
2022/07/17 03:40:50;;;;;;;4.28;1.75;;;;;;;13.85;56.63;101071.44;5040093;27;97542;-75
2022/07/17 03:43:15;;;;;;;4.63;1.88;;;;;;;13.90;56.71;101073.88;5039723;27;102099;-74
2022/07/17 03:45:41;;;;;;;3.72;1.70;;;;;;;13.95;56.80;101071.94;5041045;27;96694;-74
2022/07/17 03:48:07;;;;;;;4.88;2.00;;;;;;;13.97;56.34;101064.84;5041527;27;96727;-74
2022/07/17 03:50:33;;;;;;;6.55;2.17;;;;;;;14.01;56.36;101069.94;5037886;27;97970;-74
2022/07/17 03:52:59;;;;;;;7.45;1.90;;;;;;;14.07;56.35;101075.91;5059775;27;97931;-74
2022/07/17 03:55:24;;;;;;;4.32;1.83;;;;;;;14.05;56.77;101076.00;5055218;27;97910;-75
2022/07/17 03:57:50;;;;;;;3.67;1.60;;;;;;;14.08;56.43;101073.25;5055187;27;97066;-74
2022/07/17 04:00:15;;;;;;;3.83;1.60;;;;;;;14.14;56.05;101074.78;5049024;27;101446;-74
2022/07/17 04:02:42;;;;;;;5.03;1.70;;;;;;;14.16;56.54;101062.38;5068949;27;98435;-74
2022/07/17 04:05:09;;;;;;;5.15;1.52;;;;;;;14.29;55.90;101083.94;5024341;27;96724;-75
2022/07/17 04:07:39;;;;;;;4.38;1.25;;;;;;;14.31;56.23;101079.41;5037892;27;97113;-74
2022/07/17 04:10:05;;;;;;;7.32;2.08;;;;;;;14.33;55.64;101074.97;5018492;27;101502;-74
2022/07/17 04:12:31;;;;;;;3.40;1.98;;;;;;;14.38;55.73;101089.72;5044699;27;101154;-74
2022/07/17 04:14:57;;;;;;;4.45;1.70;;;;;;;14.45;55.67;101085.06;5020862;27;96634;-83
2022/07/17 04:17:22;;;;;;;5.22;1.90;;;;;;;14.56;55.83;101074.13;5032229;27;96689;-75
2022/07/17 04:19:48;;;;;;;6.63;1.83;;;;;;;14.77;54.82;101078.53;5040811;27;100965;-74
2022/07/17 04:22:14;;;;;;;3.10;1.40;;;;;;;14.66;54.92;101065.78;5052794;27;101175;-75
2022/07/17 04:24:39;;;;;;;4.72;1.80;;;;;;;14.69;55.28;101057.72;5048552;27;96616;-74
2022/07/17 04:27:05;;;;;;;4.75;2.03;;;;;;;14.89;54.58;101077.19;5052287;27;96581;-75
2022/07/17 04:29:31;;;;;;;4.03;1.42;;;;;;;14.96;54.70;101086.63;5073637;27;101086;-75
2022/07/17 04:31:56;;;;;;;5.10;1.50;;;;;;;15.02;54.65;101078.44;5057537;27;97488;-81
2022/07/17 04:34:22;;;;;;;3.55;1.70;;;;;;;15.22;53.90;101082.91;5054781;27;96603;-74
2022/07/17 04:36:47;;;;;;;9.43;1.92;;;;;;;15.28;54.57;101079.16;5037626;27;96918;-74
2022/07/17 04:39:13;;;;;;;4.68;1.38;;;;;;;15.48;53.46;101092.41;5035693;27;101418;-74
2022/07/17 04:41:38;;;;;;;8.93;2.08;;;;;;;15.40;53.57;101066.28;5030654;27;97367;-74
2022/07/17 04:44:04;;;;;;;4.15;1.80;;;;;;;15.63;53.20;101090.91;5037038;27;96695;-74
2022/07/17 04:46:29;;;;;;;5.22;1.70;;;;;;;15.76;53.49;101091.25;5058113;27;96818;-73
2022/07/17 04:48:55;;;;;;;5.85;2.05;;;;;;;15.98;52.84;101094.69;5044609;27;97323;-74
2022/07/17 04:51:20;;;;;;;8.20;1.98;;;;;;;16.01;52.53;101093.69;5035137;27;99793;-73
2022/07/17 04:53:46;;;;;;;4.65;1.70;;;;;;;16.16;52.13;101108.91;5036953;27;96840;-74
2022/07/17 04:56:11;;;;;;;7.28;2.25;;;;;;;16.20;52.21;101088.41;5055975;27;96913;-74
2022/07/17 04:58:37;;;;;;;4.03;2.03;;;;;;;16.50;52.20;101112.66;5047902;27;97642;-74
2022/07/17 05:01:02;;;;;;;7.50;2.20;;;;;;;16.68;51.09;101103.84;5036130;27;101542;-74
2022/07/17 05:03:28;;;;;;;4.63;1.95;;;;;;;16.57;51.57;101095.53;5057575;27;97343;-74
2022/07/17 05:05:53;;;;;;;3.78;2.05;;;;;;;16.87;51.07;101114.50;5040349;27;97032;-76
2022/07/17 05:08:19;;;;;;;8.30;2.33;;;;;;;17.05;50.99;101130.47;5042257;27;97489;-73
2022/07/17 05:10:45;;;;;;;5.20;2.13;;;;;;;17.05;50.70;101127.81;5039858;27;99283;-73
2022/07/17 05:13:10;;;;;;;5.00;2.40;;;;;;;17.31;50.41;101127.38;5054611;27;97172;-74
2022/07/17 05:15:35;;;;;;;8.52;2.17;;;;;;;17.45;50.10;101128.47;5025086;27;97105;-74
2022/07/17 05:18:01;;;;;;;8.98;2.60;;;;;;;17.71;50.03;101132.47;5050643;27;97436;-81
2022/07/17 05:20:26;;;;;;;4.68;3.35;;;;;;;17.89;49.25;101136.91;5036285;27;101186;-74
2022/07/17 05:22:53;;;;;;;3.72;1.92;;;;;;;18.13;49.27;101133.91;5048924;27;97949;-73
2022/07/17 05:25:19;;;;;;;5.43;2.20;;;;;;;18.18;48.86;101116.78;5056248;27;97107;-73
2022/07/17 05:27:44;;;;;;;5.20;2.80;;;;;;;18.38;48.85;101130.78;5056061;27;97491;-75
2022/07/17 05:30:10;;;;;;;7.53;2.72;;;;;;;18.56;48.28;101137.78;5019069;27;99787;-74
2022/07/17 05:32:35;;;;;;;9.70;3.20;;;;;;;18.75;48.16;101142.97;5039099;27;97744;-73
2022/07/17 05:35:01;;;;;;;6.05;1.52;;;;;;;18.98;47.70;101141.69;5056561;27;97103;-80
2022/07/17 05:37:26;;;;;;;6.82;2.70;;;;;;;19.25;47.53;101144.56;5055819;27;98566;-76
2022/07/17 05:39:52;;;;;;;5.47;1.90;;;;;;;19.48;46.87;101137.91;5037333;27;101346;-74
2022/07/17 05:42:17;;;;;;;3.40;1.52;;;;;;;19.72;46.45;101143.63;5071741;27;96869;-74
2022/07/17 05:44:43;;;;;;;4.53;2.55;;;;;;;20.04;46.02;101147.06;5043753;27;97100;-74
2022/07/17 05:47:08;;;;;;;6.15;1.40;;;;;;;20.28;45.34;101135.84;5059923;27;97568;-74
2022/07/17 05:49:34;;;;;;;4.53;1.73;;;;;;;20.78;44.32;101132.69;5059767;27;97279;-74
2022/07/17 05:52:00;;;;;;;7.97;1.55;;;;;;;21.54;43.15;101149.16;5058011;27;97796;-81
2022/07/17 05:54:25;;;;;;;5.20;1.48;;;;;;;22.45;41.56;101144.66;5038389;27;96835;-74
2022/07/17 05:56:51;;;;;;;5.75;1.60;;;;;;;23.13;40.38;101151.38;5036832;27;101698;-74
2022/07/17 05:59:16;;;;;;;4.45;2.10;;;;;;;24.16;38.30;101136.41;5053681;27;98489;-74
2022/07/17 06:01:42;;;;;;;7.32;2.85;;;;;;;25.17;36.72;101143.59;5073575;27;96705;-75
2022/07/17 06:04:07;;;;;;;14.27;7.03;;;;;;;26.08;35.44;101150.25;5039465;27;96960;-73
2022/07/17 06:06:33;;;;;;;4.28;2.10;;;;;;;27.03;34.13;101141.88;5039932;27;100741;-74
2022/07/17 06:08:58;;;;;;;4.18;2.65;;;;;;;27.73;32.89;101148.00;5053039;27;97489;-76
2022/07/17 06:11:24;;;;;;;10.07;3.10;;;;;;;28.27;31.91;101142.09;5049663;27;96895;-74
2022/07/17 06:13:49;;;;;;;5.18;2.30;;;;;;;28.47;31.32;101124.84;5072918;27;96778;-74
2022/07/17 06:16:15;;;;;;;6.63;2.05;;;;;;;29.11;30.30;101150.94;5039074;27;97386;-74
2022/07/17 06:18:40;;;;;;;4.93;1.88;;;;;;;29.55;29.82;101148.34;5031170;27;101385;-74
2022/07/17 06:21:06;;;;;;;4.50;2.13;;;;;;;30.07;28.98;101147.56;5035482;27;97194;-74
2022/07/17 06:23:31;;;;;;;4.15;2.47;;;;;;;30.27;28.48;101144.69;5036920;27;97247;-76
2022/07/17 06:25:57;;;;;;;8.20;4.32;;;;;;;30.82;28.03;101149.69;5041815;27;97483;-74
2022/07/17 06:28:22;;;;;;;8.63;3.65;;;;;;;31.49;27.70;101149.69;5037866;27;101627;-74
2022/07/17 06:30:47;;;;;;;4.20;1.65;;;;;;;31.64;27.03;101147.97;5059757;27;96611;-74
2022/07/17 06:33:13;;;;;;;4.05;1.60;;;;;;;31.92;27.07;101151.22;5042402;27;96991;-74
2022/07/17 06:35:38;;;;;;;5.63;2.97;;;;;;;32.05;26.62;101144.41;5024845;27;101587;-74
2022/07/17 06:38:04;;;;;;;4.63;4.18;;;;;;;32.25;26.08;101130.25;5037228;27;101635;-81
2022/07/17 06:40:30;;;;;;;5.40;1.63;;;;;;;32.53;26.55;101142.59;5043687;27;96844;-76
2022/07/17 06:42:55;;;;;;;5.28;2.08;;;;;;;32.56;25.72;101142.25;5049934;27;97124;-74
2022/07/17 06:45:21;;;;;;;6.15;2.28;;;;;;;32.91;25.32;101138.16;5063399;27;98635;-75
2022/07/17 06:47:46;;;;;;;3.97;1.65;;;;;;;32.91;25.44;101125.41;5036191;27;97396;-75
2022/07/17 06:50:12;;;;;;;7.00;4.07;;;;;;;33.16;25.36;101151.63;5060066;27;98343;-75
2022/07/17 06:52:37;;;;;;;7.05;1.60;;;;;;;32.52;25.50;101141.75;5046193;27;96889;-74
2022/07/17 06:55:03;;;;;;;6.32;1.77;;;;;;;32.39;26.21;101147.72;5031684;27;98026;-83
2022/07/17 06:57:28;;;;;;;6.68;1.90;;;;;;;33.49;24.80;101150.38;5070313;27;97404;-74
2022/07/17 06:59:54;;;;;;;4.40;1.65;;;;;;;33.75;24.69;101151.91;5066418;27;96891;-74
2022/07/17 07:02:19;;;;;;;5.55;1.95;;;;;;;33.50;25.04;101146.63;5038468;27;97675;-75
2022/07/17 07:04:45;;;;;;;7.55;1.88;;;;;;;33.73;24.92;101162.94;5034133;27;98008;-75
2022/07/17 07:07:11;;;;;;;5.72;1.65;;;;;;;34.13;24.50;101152.72;5037860;27;101603;-77
2022/07/17 07:09:36;;;;;;;4.10;1.50;;;;;;;33.97;24.32;101142.81;5054659;27;96696;-75
2022/07/17 07:12:02;;;;;;;6.55;5.15;;;;;;;33.86;24.58;101150.59;5048957;27;96905;-75
2022/07/17 07:14:28;;;;;;;4.95;1.90;;;;;;;33.98;24.42;101154.56;5047969;27;101433;-74
2022/07/17 07:16:53;;;;;;;5.00;1.73;;;;;;;34.09;24.10;101156.84;5051680;27;97644;-76
2022/07/17 07:19:19;;;;;;;5.20;1.85;;;;;;;35.06;23.51;101142.25;5047198;27;96871;-79
2022/07/17 07:21:44;;;;;;;5.43;1.48;;;;;;;34.51;23.78;101136.28;5076331;27;98486;-75
2022/07/17 07:24:10;;;;;;;4.00;1.58;;;;;;;34.16;24.12;101113.38;5047009;27;101094;-74
2022/07/17 07:26:35;;;;;;;3.75;1.50;;;;;;;33.73;24.15;101143.91;5056767;27;100480;-74
2022/07/17 07:29:01;;;;;;;2.78;1.42;;;;;;;33.86;23.83;101132.41;5021547;27;97485;-74
2022/07/17 07:31:26;;;;;;;5.13;1.77;;;;;;;33.51;24.64;101148.34;5051856;27;97866;-74
2022/07/17 07:33:52;;;;;;;3.70;1.58;;;;;;;34.16;24.09;101130.56;5046837;27;97821;-76
2022/07/17 07:36:17;;;;;;;5.05;1.75;;;;;;;35.26;22.83;101140.56;5053329;27;101156;-76
2022/07/17 07:38:44;;;;;;;2.83;1.45;;;;;;;33.71;23.96;101145.09;5073315;27;96946;-74
2022/07/17 07:41:10;;;;;;;4.65;1.88;;;;;;;34.46;23.81;101141.44;5069744;27;96819;-75
2022/07/17 07:43:36;;;;;;;4.82;1.67;;;;;;;34.60;23.83;101132.44;5021476;27;101078;-74
2022/07/17 07:46:03;;;;;;;3.38;1.60;;;;;;;34.90;22.79;101140.56;5046775;27;100948;-76
2022/07/17 07:48:29;;;;;;;4.18;1.38;;;;;;;35.71;22.83;101124.81;5029710;27;96822;-75
2022/07/17 07:50:54;;;;;;;3.80;1.40;;;;;;;35.39;22.89;101148.03;5043046;27;97312;-75
2022/07/17 07:53:20;;;;;;;3.85;1.40;;;;;;;35.49;23.28;101148.56;5052053;27;98559;-88
2022/07/17 07:55:45;;;;;;;84.60;69.30;;;;;;;33.56;25.43;101147.78;5053735;27;97487;-86
2022/07/17 07:58:13;;;;;;;71.22;53.92;;;;;;;32.13;27.02;101149.81;5039089;27;97388;-87
2022/07/17 08:00:39;;;;;;;6.28;1.60;;;;;;;29.89;28.74;101157.59;5067308;27;97311;-87
2022/07/17 08:03:05;;;;;;;4.03;2.00;;;;;;;30.84;27.64;101148.53;5034280;27;98522;-84
2022/07/17 08:05:31;;;;;;;4.35;1.60;;;;;;;31.61;26.99;101145.59;5010468;27;101968;-88
2022/07/17 08:07:57;;;;;;;3.80;1.60;;;;;;;31.67;26.43;101144.09;5043286;27;96731;-89
2022/07/17 08:10:22;;;;;;;3.65;1.30;;;;;;;30.51;27.83;101155.63;5040987;27;97369;-86
2022/07/17 08:12:48;;;;;;;3.55;1.45;;;;;;;31.49;26.65;101138.84;5037937;27;101262;-85
2022/07/17 08:15:15;;;;;;;4.07;1.60;;;;;;;29.95;28.58;101146.97;5039549;27;101273;-86
2022/07/17 08:17:41;;;;;;;5.82;1.42;;;;;;;30.15;28.18;101150.31;5059381;27;96954;-86
2022/07/17 08:20:07;;;;;;;6.45;1.83;;;;;;;29.55;29.07;101144.78;5031017;27;97190;-82
2022/07/17 08:22:33;;;;;;;4.05;1.55;;;;;;;29.23;29.34;101165.09;5030955;27;101505;-82
2022/07/17 08:24:58;;;;;;;4.85;1.95;;;;;;;29.83;28.78;101142.84;5040224;27;101156;-83
2022/07/17 08:27:24;;;;;;;5.00;2.97;;;;;;;31.47;27.35;101144.41;5038143;27;97231;-83
2022/07/17 08:29:49;;;;;;;3.97;1.55;;;;;;;31.03;27.70;101158.22;5033840;27;97743;-82
2022/07/17 08:32:15;;;;;;;5.53;1.95;;;;;;;29.10;30.22;101168.19;5014225;27;101522;-82
2022/07/17 08:34:41;;;;;;;4.03;1.30;;;;;;;31.29;26.71;101151.81;5032679;27;101090;-84
2022/07/17 08:37:06;;;;;;;3.22;1.20;;;;;;;30.00;27.80;101146.53;5025441;27;96789;-88
2022/07/17 08:39:32;;;;;;;5.43;1.60;;;;;;;29.59;28.06;101177.78;5032212;27;97066;-83
2022/07/17 08:41:57;;;;;;;3.88;1.40;;;;;;;31.06;27.32;101170.59;5012391;28;100562;-83
2022/07/17 08:44:23;;;;;;;5.75;1.90;;;;;;;32.30;25.27;101154.19;4998738;28;101212;-83
2022/07/17 08:46:49;;;;;;;3.75;1.40;;;;;;;30.61;27.42;101163.66;5015422;28;98183;-79
2022/07/17 08:49:20;;;;;;;3.80;1.27;;;;;;;29.90;27.81;101175.53;5024237;27;97296;-82
2022/07/17 08:51:46;;;;;;;3.80;1.42;;;;;;;29.25;28.79;101175.78;5038713;27;96856;-82
2022/07/17 08:54:12;;;;;;;3.25;1.45;;;;;;;30.47;27.81;101180.50;5005458;28;101644;-78
2022/07/17 08:56:37;;;;;;;4.00;1.40;;;;;;;29.59;28.73;101177.78;5026994;28;97122;-80
2022/07/17 08:59:03;;;;;;;4.25;1.55;;;;;;;31.41;26.36;101176.78;5030305;28;97429;-77
2022/07/17 09:01:28;;;;;;;12.18;3.63;;;;;;;32.03;26.30;101179.88;5028809;27;97693;-76
2022/07/17 09:04:06;;;;;;;5.93;1.50;;;;;;;31.15;26.63;101177.72;5021233;28;97880;-79
2022/07/17 09:06:36;;;;;;;3.78;1.67;;;;;;;31.80;26.19;101185.97;5010736;28;97304;-77
2022/07/17 09:09:04;;;;;;;;;;;;;;;32.08;26.40;101185.63;5017534;28;97379;-77
2022/07/17 09:11:48;;;;;;;4.78;1.60;;;;;;;32.08;26.36;101157.63;5012645;27;100735;-76
2022/07/17 09:14:14;;;;;;;2.80;1.40;;;;;;;30.34;27.53;101195.34;5021379;28;98954;-76
2022/07/17 09:16:55;;;;;;;5.75;1.70;;;;;;;29.27;28.05;101198.94;5028902;27;98514;-76
2022/07/17 09:19:29;;;;;;;1.42;1.00;;;;;;;29.06;28.50;101174.03;5007114;28;98324;-76
2022/07/17 09:22:12;;;;;;;4.43;1.20;;;;;;;29.56;28.52;101208.69;5024481;28;97615;-77
2022/07/17 09:24:52;;;;;;;5.13;1.38;;;;;;;29.65;28.08;101191.56;5022378;27;97593;-80
2022/07/17 09:27:23;;;;;;;3.78;1.20;;;;;;;29.94;27.70;101187.75;5026829;28;97256;-76
2022/07/17 09:29:51;;;;;;;2.85;1.20;;;;;;;29.52;28.24;101185.66;5026544;27;97465;-77
2022/07/17 09:32:19;;;;;;;4.30;1.30;;;;;;;29.31;28.13;101184.09;5037047;27;97546;-75
2022/07/17 09:34:48;;;;;;;4.13;1.40;;;;;;;29.27;29.10;101188.13;5033611;27;97670;-75
2022/07/17 09:37:14;;;;;;;3.72;1.40;;;;;;;28.94;28.95;101172.50;5027899;28;97443;-76
2022/07/17 09:39:40;;;;;;;5.80;1.40;;;;;;;28.78;29.47;101190.25;5029300;27;97496;-76
2022/07/17 09:42:05;;;;;;;5.22;1.75;;;;;;;28.84;29.23;101189.63;5033253;27;97477;-75
2022/07/17 09:44:31;;;;;;;4.25;1.65;;;;;;;29.14;28.81;101175.97;5019135;28;98232;-76
2022/07/17 09:46:57;;;;;;;4.53;1.42;;;;;;;29.11;29.25;101180.69;4997815;28;97219;-76
2022/07/17 09:49:25;;;;;;;3.78;1.42;;;;;;;28.81;28.50;101154.81;5017330;28;97274;-76
2022/07/17 09:51:51;;;;;;;5.70;2.00;;;;;;;28.56;29.89;101160.91;5030134;28;97488;-76
2022/07/17 09:54:20;;;;;;;5.25;1.60;;;;;;;27.89;30.86;101174.41;5024537;28;98429;-76
2022/07/17 09:56:47;;;;;;;4.47;1.38;;;;;;;28.14;30.27;101164.88;5000302;28;98311;-75
2022/07/17 09:59:13;;;;;;;4.18;1.55;;;;;;;28.24;29.88;101170.22;5016081;28;96875;-77
2022/07/17 10:01:40;;;;;;;4.28;1.38;;;;;;;27.70;29.81;101160.94;5028320;28;98957;-77
2022/07/17 10:04:06;;;;;;;5.00;1.48;;;;;;;27.66;30.20;101160.34;5012509;28;101420;-80
2022/07/17 10:06:32;;;;;;;4.35;1.73;;;;;;;27.97;29.62;101179.94;5015013;28;96907;-80
2022/07/17 10:08:58;;;;;;;4.40;1.35;;;;;;;27.73;29.69;101164.19;5012360;28;97366;-78
2022/07/17 10:11:28;;;;;;;5.05;1.45;;;;;;;27.73;29.86;101145.31;5025546;28;97503;-79
2022/07/17 10:13:56;;;;;;;4.68;1.50;;;;;;;27.97;30.19;101154.81;5011649;28;101368;-78
2022/07/17 10:16:27;;;;;;;4.28;1.40;;;;;;;28.09;30.31;101161.75;5026081;28;96822;-78
2022/07/17 10:18:55;;;;;;;4.43;1.58;;;;;;;27.96;30.38;101159.38;5027304;28;97677;-79
2022/07/17 10:21:21;;;;;;;4.35;1.45;;;;;;;27.68;30.15;101163.75;5023181;28;97581;-77
2022/07/17 10:24:05;;;;;;;5.78;1.45;;;;;;;27.61;29.99;101154.56;5023318;28;97668;-72
2022/07/17 10:26:34;;;;;;;3.42;1.20;;;;;;;27.75;29.90;101161.34;5011457;28;97511;-72
2022/07/17 10:29:00;;;;;;;2.90;1.30;;;;;;;27.83;30.75;101155.28;5032574;27;97469;-72
2022/07/17 10:31:28;;;;;;;3.88;1.58;;;;;;;27.73;31.15;101157.97;5028059;28;101933;-72
2022/07/17 10:34:01;;;;;;;2.70;1.30;;;;;;;27.65;29.63;101149.72;5013392;28;97520;-72
2022/07/17 10:36:40;;;;;;;3.72;1.27;;;;;;;27.32;31.95;101165.34;5012978;28;97454;-72
2022/07/17 10:39:20;;;;;;;3.88;1.45;;;;;;;27.00;32.52;101160.16;5027526;28;97204;-72
2022/07/17 10:42:00;;;;;;;4.22;1.38;;;;;;;26.31;32.28;101168.94;5022591;27;101471;-72
2022/07/17 10:44:31;;;;;;;15.23;1.52;;;;;;;26.60;31.58;101164.56;4986540;28;100638;-72
2022/07/17 10:46:58;;;;;;;4.40;1.42;;;;;;;26.68;31.18;101157.66;5025143;28;96793;-72
2022/07/17 10:49:24;;;;;;;2.80;1.33;;;;;;;26.75;31.28;101148.03;5027044;28;96990;-72
2022/07/17 10:51:50;;;;;;;3.80;1.30;;;;;;;26.96;30.15;101148.78;5008221;28;101187;-73
2022/07/17 10:54:17;;;;;;;6.63;1.63;;;;;;;26.52;31.99;101142.84;5009434;28;100656;-73
2022/07/17 10:56:45;;;;;;;4.10;1.48;;;;;;;26.20;32.52;101159.94;5030374;28;97453;-73
2022/07/17 10:59:11;;;;;;;5.47;1.67;;;;;;;25.93;32.59;101167.72;5012963;28;97460;-74
2022/07/17 11:01:37;;;;;;;4.70;1.63;;;;;;;26.05;32.61;101147.81;5012226;28;101612;-78
2022/07/17 11:04:04;;;;;;;6.43;1.50;;;;;;;26.17;32.23;101164.75;5015665;28;101471;-83
2022/07/17 11:06:37;;;;;;;4.78;1.40;;;;;;;26.40;30.99;101158.19;5011104;28;96828;-83
2022/07/17 11:09:11;;;;;;;4.10;1.38;;;;;;;26.32;31.03;101151.78;5017229;28;96847;-87
2022/07/17 11:11:47;;;;;;;4.68;1.60;;;;;;;26.49;31.40;101158.38;5016134;28;97614;-85
2022/07/17 11:14:16;;;;;;;3.85;1.55;;;;;;;26.56;31.50;101135.38;5001635;28;101686;-85
2022/07/17 11:16:50;;;;;;;4.68;1.67;;;;;;;26.46;31.31;101129.03;5001763;28;97888;-86
2022/07/17 11:19:22;;;;;;;8.38;1.30;;;;;;;26.60;31.44;101161.00;5006673;28;97148;-85
2022/07/17 11:21:49;;;;;;;7.30;1.80;;;;;;;26.58;31.14;101157.59;5020140;28;100128;-85